Abis Cuxhaven — PBYB — position and weather

sailwx.info

Track history (hours):
 
Tides and Currents Weather Stations Pressure Air Temp Water Temp Dewpoint Dewpoint Depression Visibility Wind Speed Wind Dir Waves Ship Positions

Abis Cuxhaven

Last reported at 2014-Oct-30 17:33 UTC. Time now 2014-Oct-30 18:20 UTC.
Position N 59°03' E 010°03'.

Length 114 m; draft 3.9 m.

Type: Cargo ship. MMSI: 246670000.

Date/timePositionNaut miles runAvg speedWind from/ knotsBaromVisibWave heightAir tempDewpointWater temp
2014-Oct-30 17:33N 59°03' E 010°03'0 0.0
2014-Oct-30 16:33N 59°03' E 010°03'0 0.0
2014-Oct-30 15:21N 59°03' E 010°03'0 0.0
2014-Oct-30 14:33N 59°03' E 010°03'0 0.0
2014-Oct-30 12:15N 59°03' E 010°03'0 0.0
2014-Oct-30 11:21N 59°03' E 010°03'0 0.0
2014-Oct-30 10:33N 59°03' E 010°03'0 0.0
2014-Oct-30 09:30N 59°03' E 010°03'0 0.0
2014-Oct-30 08:30N 59°03' E 010°03'0 0.0
2014-Oct-30 07:24N 59°03' E 010°03'0 0.0
2014-Oct-30 06:30N 59°03' E 010°03'0 0.0
2014-Oct-30 05:33N 59°03' E 010°03'0 0.0
2014-Oct-30 04:30N 59°03' E 010°03'0 0.0
2014-Oct-30 03:30N 59°03' E 010°03'0 0.0
2014-Oct-30 02:30N 59°03' E 010°03'0 0.0
2014-Oct-30 01:24N 59°03' E 010°03'0 0.0
2014-Oct-30 00:33N 59°03' E 010°03'0 0.0
2014-Oct-29 23:30N 59°03' E 010°03'0 0.0
2014-Oct-29 22:33N 59°03' E 010°03'0 0.0
2014-Oct-29 21:30N 59°03' E 010°03'0 0.0
2014-Oct-29 20:30N 59°03' E 010°03'0 0.0
2014-Oct-29 19:30N 59°03' E 010°03'0 0.0
2014-Oct-29 18:18N 59°03' E 010°03'0 0.0
2014-Oct-29 07:15N 59°03' E 010°03'0 0.0
2014-Oct-29 06:24N 59°03' E 010°03'0 0.0
2014-Oct-29 05:15N 59°03' E 010°03'0 0.0
2014-Oct-29 04:27N 59°03' E 010°03'0 0.0
2014-Oct-29 02:27N 59°03' E 010°03'0 0.0
2014-Oct-28 07:09N 59°03' E 010°03'2 3.9
2014-Oct-28 06:33N 59°00' E 010°04'204 9.7
2014-Oct-27 09:33N 55°54' E 007°28'1010.2
2014-Oct-27 08:33N 55°44' E 007°22'1010.5
2014-Oct-27 07:33N 55°35' E 007°16'1110.5
2014-Oct-27 06:33N 55°25' E 007°10'1010.5
2014-Oct-27 05:33N 55°15' E 007°04'1110.6
2014-Oct-27 04:33N 55°05' E 006°58'1110.7
2014-Oct-27 03:33N 54°55' E 006°52'1110.7
2014-Oct-27 02:32N 54°44' E 006°45'1110.7
2014-Oct-27 01:33N 54°34' E 006°40'8 8.0
2014-Oct-27 00:30N 54°26' E 006°36'9 7.7
2014-Oct-26 23:23N 54°18' E 006°31'2110.5
2014-Oct-26 21:26N 53°58' E 006°20'12 9.8
2014-Oct-26 20:10N 53°46' E 006°24'7 9.8
2014-Oct-26 19:26N 53°39' E 006°25'7 7.5
2014-Oct-26 18:33N 53°36' E 006°35'1111.1
2014-Oct-26 17:33N 53°29' E 006°49'2 1.8
2014-Oct-26 16:30N 53°27' E 006°49'0 0.0
2014-Oct-26 15:33N 53°27' E 006°49'0 0.0
2014-Oct-26 14:33N 53°27' E 006°49'0 0.0
2014-Oct-26 13:33N 53°27' E 006°49'0 0.0
2014-Oct-26 12:33N 53°27' E 006°49'0 0.0
2014-Oct-26 11:33N 53°27' E 006°49'0 0.0
2014-Oct-26 10:33N 53°27' E 006°49'0 0.0
2014-Oct-26 09:33N 53°27' E 006°49'0 0.0
2014-Oct-26 08:33N 53°27' E 006°49'0 0.0
2014-Oct-26 07:33N 53°27' E 006°49'0 0.0
2014-Oct-26 06:33N 53°27' E 006°49'0 0.0
2014-Oct-26 05:33N 53°27' E 006°49'0 0.0
2014-Oct-26 04:33N 53°27' E 006°49'0 0.0
2014-Oct-26 03:33N 53°27' E 006°49'0 0.0
2014-Oct-26 02:33N 53°27' E 006°49'0 0.0
2014-Oct-26 01:33N 53°27' E 006°49'0 0.0
2014-Oct-26 00:33N 53°27' E 006°49'0 0.0
2014-Oct-25 23:33N 53°27' E 006°49'0 0.0
2014-Oct-25 22:33N 53°27' E 006°49'0 0.0
2014-Oct-25 21:33N 53°27' E 006°49'0 0.0
2014-Oct-25 20:33N 53°27' E 006°49'0 0.0
2014-Oct-25 19:33N 53°27' E 006°49'0 0.0
2014-Oct-25 18:33N 53°27' E 006°49'0 0.0
2014-Oct-25 17:33N 53°27' E 006°49'0 0.0
2014-Oct-25 16:33N 53°27' E 006°49'0 0.0
2014-Oct-25 15:33N 53°27' E 006°49'0 0.0
2014-Oct-25 14:33N 53°27' E 006°49'0 0.0
2014-Oct-25 13:33N 53°27' E 006°49'0 0.0
2014-Oct-25 12:33N 53°27' E 006°49'0 0.0
2014-Oct-25 11:33N 53°27' E 006°49'0 0.0
2014-Oct-25 10:33N 53°27' E 006°49'0 0.0
2014-Oct-25 09:33N 53°27' E 006°49'0 0.0
2014-Oct-25 08:33N 53°27' E 006°49'0 0.0
2014-Oct-25 07:33N 53°27' E 006°49'0 0.0
2014-Oct-25 06:33N 53°27' E 006°49'0 0.0
2014-Oct-25 05:33N 53°27' E 006°49'0 0.0
2014-Oct-25 04:33N 53°27' E 006°49'0 0.0
2014-Oct-25 03:33N 53°27' E 006°49'0 0.0
2014-Oct-25 02:33N 53°27' E 006°49'0 0.0
2014-Oct-25 01:33N 53°27' E 006°49'0 0.0
2014-Oct-25 00:33N 53°27' E 006°49'0 0.0
2014-Oct-24 23:33N 53°27' E 006°49'0 0.0
2014-Oct-24 22:33N 53°27' E 006°49'0 0.0
2014-Oct-24 21:33N 53°27' E 006°49'0 0.0
2014-Oct-24 20:33N 53°27' E 006°49'0 0.0
2014-Oct-24 19:33N 53°27' E 006°49'0 0.0
2014-Oct-24 18:33N 53°27' E 006°49'0 0.0
2014-Oct-24 17:33N 53°27' E 006°49'0 0.0
2014-Oct-24 16:33N 53°27' E 006°49'0 0.0
2014-Oct-24 15:33N 53°27' E 006°49'0 0.0
2014-Oct-24 14:33N 53°27' E 006°49'0 0.0
2014-Oct-24 13:33N 53°27' E 006°49'0 0.0
2014-Oct-24 12:33N 53°27' E 006°49'0 0.0
2014-Oct-24 11:33N 53°27' E 006°49'0 0.0
2014-Oct-24 10:33N 53°27' E 006°49'0 0.0
2014-Oct-24 09:33N 53°27' E 006°49'0 0.0
2014-Oct-24 08:33N 53°27' E 006°49'0 0.0
2014-Oct-24 07:33N 53°27' E 006°49'0 0.3
2014-Oct-24 06:33N 53°27' E 006°49'0 0.0
2014-Oct-24 05:33N 53°27' E 006°49'0 0.0
2014-Oct-24 04:33N 53°27' E 006°49'0 0.0
2014-Oct-24 03:33N 53°27' E 006°49'0 0.0
2014-Oct-24 02:33N 53°27' E 006°49'0 0.0
2014-Oct-24 01:33N 53°27' E 006°49'0 0.0
2014-Oct-24 00:33N 53°27' E 006°49'0 0.0
2014-Oct-23 23:33N 53°27' E 006°49'0 0.0
2014-Oct-23 22:33N 53°27' E 006°49'0 0.0
2014-Oct-23 21:33N 53°27' E 006°49'0 0.0
2014-Oct-23 20:33N 53°27' E 006°49'0 0.0
2014-Oct-23 19:33N 53°27' E 006°49'0 0.0
2014-Oct-23 18:33N 53°27' E 006°49'0 0.0
2014-Oct-23 17:33N 53°27' E 006°49'0 0.0
2014-Oct-23 16:33N 53°27' E 006°49'0 0.0
2014-Oct-23 15:30N 53°27' E 006°49'0 0.0
2014-Oct-23 14:33N 53°27' E 006°49'0 0.0
2014-Oct-23 13:33N 53°27' E 006°49'0 0.0
2014-Oct-23 12:33N 53°27' E 006°49'0 0.0
2014-Oct-23 11:33N 53°27' E 006°49'0 0.0
2014-Oct-23 10:33N 53°27' E 006°49'0 0.0
2014-Oct-23 09:33N 53°27' E 006°49'0 0.0
2014-Oct-23 08:33N 53°27' E 006°49'0 0.0
2014-Oct-23 07:33N 53°27' E 006°49'0 0.0
2014-Oct-23 06:33N 53°27' E 006°49'0 0.0
2014-Oct-23 05:33N 53°27' E 006°49'0 0.0
2014-Oct-23 04:33N 53°27' E 006°49'0 0.0
2014-Oct-23 03:33N 53°27' E 006°49'0 0.0
2014-Oct-23 02:33N 53°27' E 006°49'0 0.0
2014-Oct-23 01:33N 53°27' E 006°49'0 0.0
2014-Oct-23 00:33N 53°27' E 006°49'0 0.0
2014-Oct-22 23:33N 53°27' E 006°49'0 0.0
2014-Oct-22 22:33N 53°27' E 006°49'0 0.0
2014-Oct-22 21:33N 53°27' E 006°49'0 0.0
2014-Oct-22 20:33N 53°27' E 006°49'0 0.0
2014-Oct-22 19:33N 53°27' E 006°49'0 0.0
2014-Oct-22 18:33N 53°27' E 006°49'0 0.0
2014-Oct-22 17:33N 53°27' E 006°49'0 0.0
2014-Oct-22 16:33N 53°27' E 006°49'0 0.0
2014-Oct-22 15:33N 53°27' E 006°49'0 0.0
2014-Oct-22 14:33N 53°27' E 006°49'0 0.0
2014-Oct-22 13:33N 53°27' E 006°49'0 0.0
2014-Oct-22 12:33N 53°27' E 006°49'0 0.0
2014-Oct-22 11:33N 53°27' E 006°49'0 0.0
2014-Oct-22 10:33N 53°27' E 006°49'0 0.0
2014-Oct-22 09:33N 53°27' E 006°49'0 0.0
2014-Oct-22 08:33N 53°27' E 006°49'0 0.0
2014-Oct-22 07:33N 53°27' E 006°49'0 0.0
2014-Oct-22 06:33N 53°27' E 006°49'0 0.0
2014-Oct-22 05:33N 53°27' E 006°49'0 0.0
2014-Oct-22 04:33N 53°27' E 006°49'0 0.0
2014-Oct-22 03:33N 53°27' E 006°49'0 0.0
2014-Oct-22 02:33N 53°27' E 006°49'0 0.0
2014-Oct-22 01:33N 53°27' E 006°49'0 0.0
2014-Oct-22 00:33N 53°27' E 006°49'0 0.0
2014-Oct-21 23:33N 53°27' E 006°49'0 0.0
2014-Oct-21 22:33N 53°27' E 006°49'0 0.0
2014-Oct-21 21:33N 53°27' E 006°49'0 0.0
2014-Oct-21 20:33N 53°27' E 006°49'0 0.0
2014-Oct-21 19:33N 53°27' E 006°49'0 0.0
2014-Oct-21 18:33N 53°27' E 006°49'0 0.0
2014-Oct-21 17:33N 53°27' E 006°49'0 0.0
2014-Oct-21 16:33N 53°27' E 006°49'0 0.0
2014-Oct-21 15:33N 53°27' E 006°49'1 1.1
2014-Oct-21 14:33N 53°28' E 006°50'1111.1
2014-Oct-21 13:33N 53°35' E 006°36'1110.4
2014-Oct-21 12:31N 53°36' E 006°18'0 0.3
2014-Oct-21 11:30N 53°36' E 006°18'0 0.0
2014-Oct-21 10:33N 53°36' E 006°18'0 0.0
2014-Oct-21 09:33N 53°36' E 006°18'6 6.5
2014-Oct-21 08:33N 53°37' E 006°07'9 9.1
2014-Oct-21 07:33N 53°36' E 005°52'1010.3
2014-Oct-21 06:33N 53°34' E 005°34'1110.8
2014-Oct-21 05:33N 53°31' E 005°17'1111.3
2014-Oct-21 04:33N 53°27' E 004°59'1110.9
2014-Oct-21 03:33N 53°22' E 004°43'1411.3
2014-Oct-21 02:19N 53°10' E 004°31'2010.6
2014-Oct-21 00:26N 52°52' E 004°17'20 9.8
2014-Oct-20 22:26N 52°36' E 003°57'8 9.1
2014-Oct-20 21:33N 52°30' E 003°49'9 8.6
2014-Oct-20 20:33N 52°22' E 003°42'  
Track history (hours):
 
Tides and Currents Weather Stations Pressure Air Temp Water Temp Dewpoint Dewpoint Depression Visibility Wind Speed Wind Dir Waves Ship Positions

Abis Cuxhaven

Last reported at 2014-Oct-30 17:33 UTC. Time now 2014-Oct-30 18:20 UTC.
Position N 59°03' E 010°03'.

Length 114 m; draft 3.9 m.

Type: Cargo ship. MMSI: 246670000.

Date/timePositionNaut miles runAvg speedWind from/ knotsBaromVisibWave heightAir tempDewpointWater temp
2014-Oct-30 17:33N 59°03' E 010°03'0 0.0
2014-Oct-30 16:33N 59°03' E 010°03'0 0.0
2014-Oct-30 15:21N 59°03' E 010°03'0 0.0
2014-Oct-30 14:33N 59°03' E 010°03'0 0.0
2014-Oct-30 12:15N 59°03' E 010°03'0 0.0
2014-Oct-30 11:21N 59°03' E 010°03'0 0.0
2014-Oct-30 10:33N 59°03' E 010°03'0 0.0
2014-Oct-30 09:30N 59°03' E 010°03'0 0.0
2014-Oct-30 08:30N 59°03' E 010°03'0 0.0
2014-Oct-30 07:24N 59°03' E 010°03'0 0.0
2014-Oct-30 06:30N 59°03' E 010°03'0 0.0
2014-Oct-30 05:33N 59°03' E 010°03'0 0.0
2014-Oct-30 04:30N 59°03' E 010°03'0 0.0
2014-Oct-30 03:30N 59°03' E 010°03'0 0.0
2014-Oct-30 02:30N 59°03' E 010°03'0 0.0
2014-Oct-30 01:24N 59°03' E 010°03'0 0.0
2014-Oct-30 00:33N 59°03' E 010°03'0 0.0
2014-Oct-29 23:30N 59°03' E 010°03'0 0.0
2014-Oct-29 22:33N 59°03' E 010°03'0 0.0
2014-Oct-29 21:30N 59°03' E 010°03'0 0.0
2014-Oct-29 20:30N 59°03' E 010°03'0 0.0
2014-Oct-29 19:30N 59°03' E 010°03'0 0.0
2014-Oct-29 18:18N 59°03' E 010°03'0 0.0
2014-Oct-29 07:15N 59°03' E 010°03'0 0.0
2014-Oct-29 06:24N 59°03' E 010°03'0 0.0
2014-Oct-29 05:15N 59°03' E 010°03'0 0.0
2014-Oct-29 04:27N 59°03' E 010°03'0 0.0
2014-Oct-29 02:27N 59°03' E 010°03'0 0.0
2014-Oct-28 07:09N 59°03' E 010°03'2 3.9
2014-Oct-28 06:33N 59°00' E 010°04'204 9.7
2014-Oct-27 09:33N 55°54' E 007°28'1010.2
2014-Oct-27 08:33N 55°44' E 007°22'1010.5
2014-Oct-27 07:33N 55°35' E 007°16'1110.5
2014-Oct-27 06:33N 55°25' E 007°10'1010.5
2014-Oct-27 05:33N 55°15' E 007°04'1110.6
2014-Oct-27 04:33N 55°05' E 006°58'1110.7
2014-Oct-27 03:33N 54°55' E 006°52'1110.7
2014-Oct-27 02:32N 54°44' E 006°45'1110.7
2014-Oct-27 01:33N 54°34' E 006°40'8 8.0
2014-Oct-27 00:30N 54°26' E 006°36'9 7.7
2014-Oct-26 23:23N 54°18' E 006°31'2110.5
2014-Oct-26 21:26N 53°58' E 006°20'12 9.8
2014-Oct-26 20:10N 53°46' E 006°24'7 9.8
2014-Oct-26 19:26N 53°39' E 006°25'7 7.5
2014-Oct-26 18:33N 53°36' E 006°35'1111.1
2014-Oct-26 17:33N 53°29' E 006°49'2 1.8
2014-Oct-26 16:30N 53°27' E 006°49'0 0.0
2014-Oct-26 15:33N 53°27' E 006°49'0 0.0
2014-Oct-26 14:33N 53°27' E 006°49'0 0.0
2014-Oct-26 13:33N 53°27' E 006°49'0 0.0
2014-Oct-26 12:33N 53°27' E 006°49'0 0.0
2014-Oct-26 11:33N 53°27' E 006°49'0 0.0
2014-Oct-26 10:33N 53°27' E 006°49'0 0.0
2014-Oct-26 09:33N 53°27' E 006°49'0 0.0
2014-Oct-26 08:33N 53°27' E 006°49'0 0.0
2014-Oct-26 07:33N 53°27' E 006°49'0 0.0
2014-Oct-26 06:33N 53°27' E 006°49'0 0.0
2014-Oct-26 05:33N 53°27' E 006°49'0 0.0
2014-Oct-26 04:33N 53°27' E 006°49'0 0.0
2014-Oct-26 03:33N 53°27' E 006°49'0 0.0
2014-Oct-26 02:33N 53°27' E 006°49'0 0.0
2014-Oct-26 01:33N 53°27' E 006°49'0 0.0
2014-Oct-26 00:33N 53°27' E 006°49'0 0.0
2014-Oct-25 23:33N 53°27' E 006°49'0 0.0
2014-Oct-25 22:33N 53°27' E 006°49'0 0.0
2014-Oct-25 21:33N 53°27' E 006°49'0 0.0
2014-Oct-25 20:33N 53°27' E 006°49'0 0.0
2014-Oct-25 19:33N 53°27' E 006°49'0 0.0
2014-Oct-25 18:33N 53°27' E 006°49'0 0.0
2014-Oct-25 17:33N 53°27' E 006°49'0 0.0
2014-Oct-25 16:33N 53°27' E 006°49'0 0.0
2014-Oct-25 15:33N 53°27' E 006°49'0 0.0
2014-Oct-25 14:33N 53°27' E 006°49'0 0.0
2014-Oct-25 13:33N 53°27' E 006°49'0 0.0
2014-Oct-25 12:33N 53°27' E 006°49'0 0.0
2014-Oct-25 11:33N 53°27' E 006°49'0 0.0
2014-Oct-25 10:33N 53°27' E 006°49'0 0.0
2014-Oct-25 09:33N 53°27' E 006°49'0 0.0
2014-Oct-25 08:33N 53°27' E 006°49'0 0.0
2014-Oct-25 07:33N 53°27' E 006°49'0 0.0
2014-Oct-25 06:33N 53°27' E 006°49'0 0.0
2014-Oct-25 05:33N 53°27' E 006°49'0 0.0
2014-Oct-25 04:33N 53°27' E 006°49'0 0.0
2014-Oct-25 03:33N 53°27' E 006°49'0 0.0
2014-Oct-25 02:33N 53°27' E 006°49'0 0.0
2014-Oct-25 01:33N 53°27' E 006°49'0 0.0
2014-Oct-25 00:33N 53°27' E 006°49'0 0.0
2014-Oct-24 23:33N 53°27' E 006°49'0 0.0
2014-Oct-24 22:33N 53°27' E 006°49'0 0.0
2014-Oct-24 21:33N 53°27' E 006°49'0 0.0
2014-Oct-24 20:33N 53°27' E 006°49'0 0.0
2014-Oct-24 19:33N 53°27' E 006°49'0 0.0
2014-Oct-24 18:33N 53°27' E 006°49'0 0.0
2014-Oct-24 17:33N 53°27' E 006°49'0 0.0
2014-Oct-24 16:33N 53°27' E 006°49'0 0.0
2014-Oct-24 15:33N 53°27' E 006°49'0 0.0
2014-Oct-24 14:33N 53°27' E 006°49'0 0.0
2014-Oct-24 13:33N 53°27' E 006°49'0 0.0
2014-Oct-24 12:33N 53°27' E 006°49'0 0.0
2014-Oct-24 11:33N 53°27' E 006°49'0 0.0
2014-Oct-24 10:33N 53°27' E 006°49'0 0.0
2014-Oct-24 09:33N 53°27' E 006°49'0 0.0
2014-Oct-24 08:33N 53°27' E 006°49'0 0.0
2014-Oct-24 07:33N 53°27' E 006°49'0 0.3
2014-Oct-24 06:33N 53°27' E 006°49'0 0.0
2014-Oct-24 05:33N 53°27' E 006°49'0 0.0
2014-Oct-24 04:33N 53°27' E 006°49'0 0.0
2014-Oct-24 03:33N 53°27' E 006°49'0 0.0
2014-Oct-24 02:33N 53°27' E 006°49'0 0.0
2014-Oct-24 01:33N 53°27' E 006°49'0 0.0
2014-Oct-24 00:33N 53°27' E 006°49'0 0.0
2014-Oct-23 23:33N 53°27' E 006°49'0 0.0
2014-Oct-23 22:33N 53°27' E 006°49'0 0.0
2014-Oct-23 21:33N 53°27' E 006°49'0 0.0
2014-Oct-23 20:33N 53°27' E 006°49'0 0.0
2014-Oct-23 19:33N 53°27' E 006°49'0 0.0
2014-Oct-23 18:33N 53°27' E 006°49'0 0.0
2014-Oct-23 17:33N 53°27' E 006°49'0 0.0
2014-Oct-23 16:33N 53°27' E 006°49'0 0.0
2014-Oct-23 15:30N 53°27' E 006°49'0 0.0
2014-Oct-23 14:33N 53°27' E 006°49'0 0.0
2014-Oct-23 13:33N 53°27' E 006°49'0 0.0
2014-Oct-23 12:33N 53°27' E 006°49'0 0.0
2014-Oct-23 11:33N 53°27' E 006°49'0 0.0
2014-Oct-23 10:33N 53°27' E 006°49'0 0.0
2014-Oct-23 09:33N 53°27' E 006°49'0 0.0
2014-Oct-23 08:33N 53°27' E 006°49'0 0.0
2014-Oct-23 07:33N 53°27' E 006°49'0 0.0
2014-Oct-23 06:33N 53°27' E 006°49'0 0.0
2014-Oct-23 05:33N 53°27' E 006°49'0 0.0
2014-Oct-23 04:33N 53°27' E 006°49'0 0.0
2014-Oct-23 03:33N 53°27' E 006°49'0 0.0
2014-Oct-23 02:33N 53°27' E 006°49'0 0.0
2014-Oct-23 01:33N 53°27' E 006°49'0 0.0
2014-Oct-23 00:33N 53°27' E 006°49'0 0.0
2014-Oct-22 23:33N 53°27' E 006°49'0 0.0
2014-Oct-22 22:33N 53°27' E 006°49'0 0.0
2014-Oct-22 21:33N 53°27' E 006°49'0 0.0
2014-Oct-22 20:33N 53°27' E 006°49'0 0.0
2014-Oct-22 19:33N 53°27' E 006°49'0 0.0
2014-Oct-22 18:33N 53°27' E 006°49'0 0.0
2014-Oct-22 17:33N 53°27' E 006°49'0 0.0
2014-Oct-22 16:33N 53°27' E 006°49'0 0.0
2014-Oct-22 15:33N 53°27' E 006°49'0 0.0
2014-Oct-22 14:33N 53°27' E 006°49'0 0.0
2014-Oct-22 13:33N 53°27' E 006°49'0 0.0
2014-Oct-22 12:33N 53°27' E 006°49'0 0.0
2014-Oct-22 11:33N 53°27' E 006°49'0 0.0
2014-Oct-22 10:33N 53°27' E 006°49'0 0.0
2014-Oct-22 09:33N 53°27' E 006°49'0 0.0
2014-Oct-22 08:33N 53°27' E 006°49'0 0.0
2014-Oct-22 07:33N 53°27' E 006°49'0 0.0
2014-Oct-22 06:33N 53°27' E 006°49'0 0.0
2014-Oct-22 05:33N 53°27' E 006°49'0 0.0
2014-Oct-22 04:33N 53°27' E 006°49'0 0.0
2014-Oct-22 03:33N 53°27' E 006°49'0 0.0
2014-Oct-22 02:33N 53°27' E 006°49'0 0.0
2014-Oct-22 01:33N 53°27' E 006°49'0 0.0
2014-Oct-22 00:33N 53°27' E 006°49'0 0.0
2014-Oct-21 23:33N 53°27' E 006°49'0 0.0
2014-Oct-21 22:33N 53°27' E 006°49'0 0.0
2014-Oct-21 21:33N 53°27' E 006°49'0 0.0
2014-Oct-21 20:33N 53°27' E 006°49'0 0.0
2014-Oct-21 19:33N 53°27' E 006°49'0 0.0
2014-Oct-21 18:33N 53°27' E 006°49'0 0.0
2014-Oct-21 17:33N 53°27' E 006°49'0 0.0
2014-Oct-21 16:33N 53°27' E 006°49'0 0.0
2014-Oct-21 15:33N 53°27' E 006°49'1 1.1
2014-Oct-21 14:33N 53°28' E 006°50'1111.1
2014-Oct-21 13:33N 53°35' E 006°36'1110.4
2014-Oct-21 12:31N 53°36' E 006°18'0 0.3
2014-Oct-21 11:30N 53°36' E 006°18'0 0.0
2014-Oct-21 10:33N 53°36' E 006°18'0 0.0
2014-Oct-21 09:33N 53°36' E 006°18'6 6.5
2014-Oct-21 08:33N 53°37' E 006°07'9 9.1
2014-Oct-21 07:33N 53°36' E 005°52'1010.3
2014-Oct-21 06:33N 53°34' E 005°34'1110.8
2014-Oct-21 05:33N 53°31' E 005°17'1111.3
2014-Oct-21 04:33N 53°27' E 004°59'1110.9
2014-Oct-21 03:33N 53°22' E 004°43'1411.3
2014-Oct-21 02:19N 53°10' E 004°31'2010.6
2014-Oct-21 00:26N 52°52' E 004°17'20 9.8
2014-Oct-20 22:26N 52°36' E 003°57'8 9.1
2014-Oct-20 21:33N 52°30' E 003°49'9 8.6
2014-Oct-20 20:33N 52°22' E 003°42'  

Dump ship's entire track history